Latest Weather Observations for Mount Gellibrand

IDV60801

Issued at 9:22 am EDT Tuesday 22 January 2019 (issued every 10 minutes, with the page automatically refreshed every 10 minutes)

About weather observations | Map of weather stations | Latest weather observations for VIC | Other Formats
Station Details ID: 090035 Name: MOUNT GELLIBRAND Lat: -38.23 Lon: 143.79 Height: 261.0 m
Data from the previous 72 hours. | See also: Recent months at Mount Gellibrand
Date/Time
EDT
Temp
°C
App
Temp
°C
Dew
Point
°C
Rel
Hum
%
Delta-T
°C
Wind Press
QNH
hPa
Press
MSL
hPa
Rain since
9am
mm
Dir  Spd
km/h
Gust
km/h
Spd
kts
Gust
kts
22/09:00am 17.5 18.4 17.5 100 0.0 ESE 9 13 5 7 1013.9 1013.1 0.2
22/08:30am 15.2 14.8 15.2 100 0.0 ESE 11 13 6 7 1013.6 1012.8 0.2
22/08:00am 14.7 13.4 14.7 100 0.0 E 15 19 8 10 1013.3 1012.5 0.2
22/07:30am 14.6 13.6 14.6 100 0.0 ESE 13 17 7 9 1013.3 1012.5 0.2
22/07:00am 14.5 13.1 14.5 100 0.0 E 15 17 8 9 1013.1 1012.3 0.2
22/06:30am 14.2 12.7 14.2 100 0.0 E 15 17 8 9 1012.9 1012.1 0.2
22/06:00am 14.3 13.2 14.3 100 0.0 E 13 15 7 8 1013.1 1012.3 0.2
22/05:30am 14.4 13.7 14.4 100 0.0 E 11 13 6 7 1013.2 1012.4 0.2
22/05:00am 14.5 13.9 14.5 100 0.0 ESE 11 15 6 8 1013.2 1012.4 0.2
22/04:30am 14.5 13.9 14.5 100 0.0 ESE 11 13 6 7 1013.5 1012.7 0.2
22/04:00am 14.5 13.9 14.5 100 0.0 E 11 13 6 7 1013.8 1013.0 0.2
22/03:30am 14.7 14.5 14.7 100 0.0 E 9 11 5 6 1014.2 1013.4 0.2
22/03:00am 14.6 13.2 14.6 100 0.0 ENE 15 17 8 9 1014.2 1013.4 0.2
22/02:30am 14.9 14.0 14.9 100 0.0 ENE 13 17 7 9 1014.7 1013.9 0.2
22/02:00am 15.0 14.5 15.0 100 0.0 ESE 11 13 6 7 1015.2 1014.4 0.2
22/01:30am 15.1 14.3 15.1 100 0.0 E 13 17 7 9 1015.4 1014.6 0.2
22/01:00am 15.0 13.0 15.0 100 0.0 E 19 24 10 13 1015.5 1014.7 0.2
22/12:30am 15.1 12.6 15.1 100 0.0 ENE 22 28 12 15 1015.6 1014.8 0.2
22/12:00am 14.9 12.7 14.9 100 0.0 ENE 20 24 11 13 1016.2 1015.4 0.2
 
Date/Time
EDT
Temp
°C
App
Temp
°C
Dew
Point
°C
Rel
Hum
%
Delta-T
°C
Wind Press
QNH
hPa
Press
MSL
hPa
Rain since
9am
mm
Dir  Spd
km/h
Gust
km/h
Spd
kts
Gust
kts
21/11:30pm 14.6 12.3 14.6 100 0.0 ENE 20 24 11 13 1016.2 1015.4 0.2
21/11:00pm 14.8 12.6 14.8 100 0.0 E 20 24 11 13 1016.4 1015.6 0.2
21/10:30pm 15.1 12.6 15.1 100 0.0 ENE 22 26 12 14 1016.4 1015.6 0.2
21/10:00pm 15.4 13.4 15.4 100 0.0 E 20 26 11 14 1016.4 1015.6 0.2
21/09:30pm 15.9 12.9 15.9 100 0.0 E 26 30 14 16 1015.9 1015.1 0.2
21/09:00pm 16.5 13.6 16.2 98 0.2 E 26 30 14 16 1015.1 1014.3 0.2
21/08:30pm 17.8 15.3 16.1 90 1.0 E 24 28 13 15 1014.7 1013.9 0.2
21/08:00pm 19.4 16.8 15.9 80 2.1 E 24 28 13 15 1014.3 1013.5 0.2
21/07:30pm 21.0 18.7 15.8 72 3.1 E 22 28 12 15 1014.1 1013.3 0.2
21/07:00pm 23.1 20.1 14.9 60 4.9 E 24 28 13 15 1013.8 1013.0 0.2
21/06:30pm 24.6 21.2 14.7 54 6.0 ESE 26 32 14 17 1013.6 1012.8 0.2
21/06:00pm 25.8 21.9 14.3 49 6.9 E 28 32 15 17 1013.4 1012.6 0.2
21/05:30pm 27.9 24.5 13.8 42 8.5 ESE 24 30 13 16 1013.6 1012.8 0.2
21/05:00pm 29.2 27.0 13.4 38 9.5 ESE 17 26 9 14 1013.8 1013.0 0.2
21/04:30pm 29.4 27.2 13.2 37 9.7 ESE 17 20 9 11 1014.0 1013.2 0.2
21/04:00pm 28.7 27.1 13.8 40 9.0 ESE 15 24 8 13 1014.3 1013.5 0.2
21/03:30pm 28.1 26.2 15.1 45 8.0 E 19 26 10 14 1014.3 1013.5 0.2
21/03:00pm 27.8 26.0 15.5 47 7.6 ESE 19 28 10 15 1014.7 1013.9 0.2
21/02:30pm 27.6 26.7 14.9 45 7.8 E 13 26 7 14 1015.0 1014.2 0.2
21/02:00pm 27.2 26.0 13.9 44 8.0 NE 13 22 7 12 1015.4 1014.6 0.2
21/01:30pm 26.7 24.8 15.1 49 7.1 E 19 28 10 15 1015.9 1015.1 0.2
21/01:00pm 26.2 25.3 15.9 53 6.4 E 15 26 8 14 1016.2 1015.4 0.2
21/12:30pm 24.6 23.5 16.3 60 5.1 E 17 26 9 14 1016.8 1016.0 0.2
21/12:00pm 22.3 21.1 16.1 68 3.8 ESE 17 22 9 12 1017.1 1016.3 0.2
21/11:30am 21.9 21.2 17.3 75 2.9 E 17 24 9 13 1017.3 1016.5 0.2
21/11:00am 18.9 19.3 18.9 100 0.0 E 15 20 8 11 1017.9 1017.1 0.2
21/10:30am 17.5 17.6 17.5 100 0.0 E 13 19 7 10 1018.1 1017.3 0.2
21/10:00am 16.2 15.8 16.2 100 0.0 E 13 22 7 12 1018.6 1017.8 0.2
21/09:30am 15.8 15.3 15.8 100 0.0 E 13 17 7 9 1018.8 1018.0 0.2
21/09:00am 15.7 15.9 15.7 100 0.0 E 9 13 5 7 1018.8 1018.0 0.0
21/08:30am 15.4 15.5 15.4 100 0.0 ENE 9 13 5 7 1018.9 1018.1 0.0
21/08:00am 15.2 15.2 15.2 100 0.0 E 9 15 5 8 1018.6 1017.8 0.0
21/07:30am 14.8 13.5 14.8 100 0.0 E 15 17 8 9 1018.1 1017.3 0.0
21/07:00am 14.8 13.5 14.8 100 0.0 ESE 15 20 8 11 1018.1 1017.3 0.0
21/06:30am 14.7 13.4 14.7 100 0.0 E 15 19 8 10 1018.2 1017.4 0.0
21/06:00am 14.8 13.5 14.8 100 0.0 ESE 15 19 8 10 1018.1 1017.3 0.0
21/05:30am 14.7 13.4 14.7 100 0.0 ESE 15 19 8 10 1018.1 1017.3 0.0
21/05:00am 14.9 13.6 14.9 100 0.0 E 15 17 8 9 1018.2 1017.4 0.0
21/04:30am 14.8 14.6 14.8 100 0.0 ESE 9 13 5 7 1018.5 1017.7 0.0
21/04:00am 14.8 14.6 14.8 100 0.0 ESE 9 11 5 6 1018.9 1018.1 0.0
21/03:30am 14.6 14.4 14.6 100 0.0 SE 9 11 5 6 1019.4 1018.7 0.0
21/03:00am 14.5 13.9 14.5 100 0.0 ESE 11 13 6 7 1019.4 1018.7 0.0
21/02:30am 14.2 13.1 14.2 100 0.0 ESE 13 13 7 7 1019.6 1018.9 0.0
21/02:00am 14.2 13.1 14.2 100 0.0 ESE 13 15 7 8 1019.6 1018.9 0.0
21/01:30am 14.3 12.8 14.3 100 0.0 SE 15 17 8 9 1020.0 1019.2 0.0
21/01:00am 14.2 13.5 14.2 100 0.0 ESE 11 13 6 7 1020.1 1019.3 0.0
21/12:30am 14.3 13.6 14.3 100 0.0 ESE 11 13 6 7 1020.5 1019.7 0.0
21/12:00am 14.4 13.7 14.4 100 0.0 ESE 11 15 6 8 1020.6 1019.8 0.0
 
Date/Time
EDT
Temp
°C
App
Temp
°C
Dew
Point
°C
Rel
Hum
%
Delta-T
°C
Wind Press
QNH
hPa
Press
MSL
hPa
Rain since
9am
mm
Dir  Spd
km/h
Gust
km/h
Spd
kts
Gust
kts
20/11:30pm 14.8 13.9 14.8 100 0.0 ESE 13 17 7 9 1020.6 1019.8 0.0
20/11:00pm 14.9 13.3 14.9 100 0.0 ESE 17 20 9 11 1020.7 1019.9 0.0
20/10:30pm 15.1 13.2 15.1 100 0.0 E 19 20 10 11 1020.7 1019.9 0.0
20/10:00pm 15.4 13.9 15.4 100 0.0 E 17 19 9 10 1020.7 1019.9 0.0
20/09:30pm 15.8 13.9 15.2 96 0.4 E 19 20 10 11 1020.4 1019.6 0.0
20/09:00pm 16.7 14.8 15.1 90 0.9 E 19 22 10 12 1020.2 1019.4 0.0
20/08:30pm 18.4 15.8 14.9 80 2.1 E 22 28 12 15 1020.1 1019.3 0.0
20/08:00pm 20.4 17.3 14.5 69 3.5 ESE 24 26 13 14 1019.7 1019.0 0.0
20/07:30pm 21.8 18.8 14.7 64 4.2 ESE 24 30 13 16 1019.4 1018.7 0.0
20/07:00pm 23.1 20.0 14.4 58 5.2 ESE 24 32 13 17 1019.3 1018.6 0.0
20/06:30pm 24.4 21.3 14.5 54 5.9 ESE 24 30 13 16 1019.2 1018.5 0.0
20/06:00pm 25.0 21.9 14.5 52 6.3 ESE 24 32 13 17 1019.2 1018.5 0.0
20/05:30pm 26.1 23.4 14.6 49 7.0 E 22 30 12 16 1019.3 1018.6 0.0
20/05:00pm 26.4 24.5 14.2 47 7.3 E 17 28 9 15 1019.6 1018.9 0.0
20/04:30pm 27.1 25.1 13.8 44 8.0 E 17 28 9 15 1019.9 1019.1 0.0
20/04:00pm 25.8 23.2 13.3 46 7.4 E 19 28 10 15 1020.1 1019.3 0.0
20/03:30pm 27.3 24.8 13.6 43 8.2 E 19 28 10 15 1020.2 1019.4 0.0
20/03:00pm 27.4 25.1 13.0 41 8.5 ENE 17 30 9 16 1020.4 1019.6 0.0
20/02:30pm 27.1 26.0 12.0 39 8.8 WNW 9 17 5 9 1020.8 1020.0 0.0
20/02:00pm 25.5 23.4 11.3 41 8.1 SW 13 19 7 10 1021.1 1020.3 0.0
20/01:30pm 24.6 23.3 12.5 46 7.0 WSW 11 19 6 10 1021.4 1020.6 0.0
20/01:00pm 24.9 24.0 12.5 46 7.2 S 9 17 5 9 1021.6 1020.8 0.0
20/12:30pm 23.8 22.7 10.8 44 7.3 SSE 7 15 4 8 1021.9 1021.1 0.0
20/12:00pm 23.1 21.4 11.2 47 6.7 SSW 11 17 6 9 1022.0 1021.2 0.0
20/11:30am 23.3 22.1 11.7 48 6.6 SSW 9 17 5 9 1022.3 1021.5 0.0
20/11:00am 20.8 20.3 12.0 57 5.0 WSW 6 15 3 8 1022.5 1021.8 0.0
20/10:30am 19.2 18.7 12.0 63 4.0 W 6 9 3 5 1022.5 1021.8 0.0
20/10:00am 18.1 17.0 11.9 67 3.4 W 9 15 5 8 1022.5 1021.8 0.0
20/09:30am 16.9 15.9 12.2 74 2.6 WNW 9 13 5 7 1022.6 1021.9 0.0
20/09:00am 15.4 14.8 12.2 81 1.8 WSW 7 13 4 7 1022.4 1021.7 0.0
20/08:30am 14.4 14.3 13.3 93 0.6 WSW 6 7 3 4 1022.1 1021.3 0.0
20/08:00am 13.8 14.6 13.8 100 0.0 SSW 2 4 1 2 1021.8 1021.0 0.0
20/07:30am 13.2 13.4 13.2 100 0.0 SSW 4 4 2 2 1021.7 1020.9 0.0
20/07:00am 12.4 12.4 12.4 100 0.0 SSW 4 6 2 3 1021.6 1020.8 0.0
20/06:30am 12.0 11.5 12.0 100 0.0 SSW 6 6 3 3 1021.5 1020.7 0.0
20/06:00am 11.7 11.0 11.5 99 0.1 SSW 6 7 3 4 1021.3 1020.5 0.0
20/05:30am 12.2 12.4 12.0 99 0.1 SSW 2 2 1 1 1021.3 1020.5 0.0
20/05:00am 12.1 11.3 11.8 98 0.2 SSW 7 9 4 5 1021.4 1020.6 0.0
20/04:30am 12.5 11.4 12.0 97 0.3 SW 9 11 5 6 1021.5 1020.7 0.0
20/04:00am 12.6 11.5 12.0 96 0.3 SW 9 9 5 5 1021.6 1020.8 0.0
20/03:30am 12.2 10.5 11.1 93 0.6 SW 11 11 6 6 1022.1 1021.3 0.0
20/03:00am 12.6 10.9 11.3 92 0.7 SW 11 13 6 7 1022.0 1021.2 0.0
20/02:30am 12.7 11.9 11.1 90 0.9 SW 6 7 3 4 1022.1 1021.3 0.0
20/02:00am 12.7 11.4 11.1 90 0.8 SW 9 11 5 6 1022.0 1021.2 0.0
20/01:30am 12.6 11.2 11.0 90 0.8 SW 9 11 5 6 1022.1 1021.3 0.0
20/01:00am 13.3 12.3 11.0 86 1.2 WSW 7 11 4 6 1022.3 1021.5 0.0
20/12:30am 13.4 11.1 10.6 83 1.5 WSW 13 15 7 8 1022.8 1022.1 0.0
20/12:00am 13.4 10.3 10.4 82 1.6 SW 17 19 9 10 1022.7 1022.0 0.0
 
Date/Time
EDT
Temp
°C
App
Temp
°C
Dew
Point
°C
Rel
Hum
%
Delta-T
°C
Wind Press
QNH
hPa
Press
MSL
hPa
Rain since
9am
mm
Dir  Spd
km/h
Gust
km/h
Spd
kts
Gust
kts
19/11:30pm 13.8 10.8 10.6 81 1.7 SSW 17 17 9 9 1022.7 1022.0 0.0
19/11:00pm 14.2 10.7 10.2 77 2.1 SSW 19 22 10 12 1022.7 1022.0 0.0
19/10:30pm 14.3 11.4 9.7 74 2.4 SSW 15 15 8 8 1022.7 1022.0 0.0
19/10:00pm 14.7 11.4 9.7 72 2.6 SW 17 19 9 10 1022.6 1021.9 0.0
19/09:30pm 15.4 11.8 9.7 69 3.0 SW 19 20 10 11 1022.3 1021.5 0.0
19/09:00pm 16.2 12.4 9.8 66 3.4 SW 20 24 11 13 1022.2 1021.4 0.0
19/08:30pm 17.6 13.2 9.0 57 4.5 SSW 22 26 12 14 1021.6 1020.8 0.0
19/08:00pm 19.2 14.5 7.6 47 6.0 SW 22 26 12 14 1021.5 1020.7 0.0
19/07:30pm 20.6 16.2 7.6 43 6.8 SW 20 24 11 13 1021.2 1020.4 0.0
19/07:00pm 21.4 17.5 7.3 40 7.3 WSW 17 28 9 15 1021.2 1020.4 0.0
19/06:30pm 21.8 17.6 7.6 40 7.5 WSW 19 26 10 14 1021.0 1020.2 0.0
19/06:00pm 22.8 19.3 7.4 37 8.1 WSW 15 26 8 14 1020.9 1020.1 0.0
19/05:30pm 22.6 18.3 7.2 37 8.1 SW 19 26 10 14 1021.0 1020.2 0.0
19/05:00pm 22.6 18.2 6.4 35 8.3 WSW 19 30 10 16 1021.1 1020.3 0.0
19/04:30pm 22.9 17.8 6.2 34 8.6 WSW 22 33 12 18 1021.2 1020.4 0.0
19/04:00pm 23.1 18.6 6.0 33 8.8 WSW 19 32 10 17 1021.4 1020.6 0.0
19/03:30pm 24.2 19.5 6.0 31 9.4 WSW 20 33 11 18 1021.5 1020.7 0.0
19/03:00pm 23.2 19.8 6.1 33 8.8 SW 13 20 7 11 1021.7 1020.9 0.0
19/02:30pm 23.3 18.9 6.6 34 8.7 SW 19 28 10 15 1021.7 1020.9 0.0
19/02:00pm 22.7 18.4 5.2 32 8.8 WSW 17 32 9 17 1022.0 1021.2 0.0
19/01:30pm 21.5 16.9 5.8 36 8.0 WSW 19 33 10 18 1022.1 1021.3 0.0
19/01:00pm 20.9 17.2 6.4 39 7.4 W 15 32 8 17 1022.1 1021.3 0.0
19/12:30pm 21.0 17.3 8.0 43 6.8 WSW 17 30 9 16 1022.2 1021.4 0.0
19/12:00pm 20.0 15.6 6.7 42 6.8 SW 19 30 10 16 1022.2 1021.4 0.0
19/11:30am 19.1 15.3 7.5 47 6.0 SW 17 30 9 16 1022.0 1021.2 0.0
19/11:00am 17.7 13.6 8.0 53 5.0 WSW 19 26 10 14 1021.9 1021.1 0.0
19/10:30am 18.4 15.4 9.2 55 4.9 W 15 22 8 12 1021.8 1021.0 0.0
19/10:00am 17.3 14.8 9.7 61 4.0 WSW 13 20 7 11 1021.7 1020.9 0.0
19/09:30am 16.7 13.7 9.4 62 3.8 WSW 15 22 8 12 1021.8 1021.0 0.0

Other Formats:

Comma delimited format used in spreadsheet applications
http://www.bom.gov.au/fwo/IDV60801/IDV60801.95845.axf

JavaScript Object Notation format (JSON) in row-major order
http://www.bom.gov.au/fwo/IDV60801/IDV60801.95845.json